createdAt,value
2019-02-27T00:01:20.987Z,68.07
2019-02-27T00:06:22.741Z,72.07
2019-02-27T00:11:24.300Z,81.07
2019-02-27T00:16:26.000Z,76.40
2019-02-27T00:21:27.711Z,70.10
2019-02-27T00:26:29.329Z,73.07
2019-02-27T00:31:31.086Z,71.70
2019-02-27T00:36:32.739Z,72.93
2019-02-27T00:41:34.402Z,74.80
2019-02-27T00:46:35.955Z,75.63
2019-02-27T00:51:37.545Z,69.53
2019-02-27T00:56:39.093Z,66.63
2019-02-27T01:01:40.648Z,61.10
2019-02-27T01:06:42.218Z,61.27
2019-02-27T01:11:43.763Z,62.37
2019-02-27T01:16:47.660Z,63.43
2019-02-27T01:21:48.824Z,65.13
2019-02-27T01:26:50.449Z,61.87
2019-02-27T01:31:52.005Z,61.87
2019-02-27T01:36:54.899Z,65.87
2019-02-27T01:41:57.932Z,71.57
2019-02-27T01:47:02.387Z,71.77
2019-02-27T01:52:03.674Z,65.27
2019-02-27T01:57:05.228Z,61.23
2019-02-27T02:02:06.811Z,59.40
2019-02-27T02:07:08.764Z,65.80
2019-02-27T02:12:15.309Z,59.37
2019-02-27T02:18:02.136Z,55.27
2019-02-27T02:23:41.744Z,50.40
2019-02-27T02:29:05.271Z,49.93
2019-02-27T02:34:30.496Z,47.73
2019-02-27T02:39:56.592Z,47.87
2019-02-27T02:45:18.507Z,49.57
2019-02-27T02:50:43.944Z,51.13
2019-02-27T02:56:12.397Z,49.70
2019-02-27T03:01:22.503Z,51.70
2019-02-27T03:06:41.501Z,50.40
2019-02-27T03:12:29.896Z,49.33
2019-02-27T03:18:08.884Z,46.70
2019-02-27T03:23:50.996Z,48.27
2019-02-27T03:29:03.801Z,49.67
2019-02-27T03:34:50.730Z,52.07
2019-02-27T03:39:59.178Z,53.93
2019-02-27T03:45:31.099Z,51.50
2019-02-27T03:50:49.532Z,51.70
2019-02-27T03:56:21.097Z,54.63
2019-02-27T04:01:46.219Z,49.07
2019-02-27T04:07:23.697Z,49.73
2019-02-27T04:12:25.292Z,48.07
2019-02-27T04:17:26.673Z,49.20
2019-02-27T04:22:28.261Z,47.37
2019-02-27T04:27:29.810Z,47.80
2019-02-27T04:32:31.415Z,45.90
2019-02-27T04:37:32.969Z,46.47
2019-02-27T04:42:34.515Z,50.20
2019-02-27T04:47:36.068Z,47.13
2019-02-27T04:52:37.851Z,49.47
2019-02-27T04:57:39.403Z,47.87
2019-02-27T05:02:41.063Z,51.37
2019-02-27T05:07:42.610Z,54.20
2019-02-27T05:12:47.847Z,52.37
2019-02-27T05:17:47.691Z,53.67
2019-02-27T05:22:49.242Z,52.37
2019-02-27T05:27:50.792Z,53.77
2019-02-27T05:32:52.436Z,61.43
2019-02-27T05:37:54.036Z,53.53
2019-02-27T05:42:55.588Z,57.57
2019-02-27T05:47:57.145Z,57.33
2019-02-27T05:52:58.743Z,56.47
2019-02-27T05:58:00.295Z,53.63
2019-02-27T06:03:01.958Z,53.67
2019-02-27T06:08:03.656Z,53.10
2019-02-27T06:13:05.265Z,49.47
2019-02-27T06:18:06.861Z,54.27
2019-02-27T06:23:08.417Z,58.07
2019-02-27T06:28:09.963Z,58.50
2019-02-27T06:33:12.382Z,58.17
2019-02-27T06:38:13.952Z,58.50
2019-02-27T06:43:15.644Z,63.73
2019-02-27T06:48:17.239Z,56.17
2019-02-27T06:53:18.817Z,67.30
2019-02-27T06:58:20.405Z,67.93
2019-02-27T07:03:21.965Z,62.90
2019-02-27T07:08:23.542Z,57.43
2019-02-27T07:13:26.792Z,57.13
2019-02-27T07:18:28.604Z,53.23
2019-02-27T07:23:30.216Z,51.30
2019-02-27T07:28:31.845Z,57.60
2019-02-27T07:33:33.460Z,49.30
2019-02-27T07:38:35.016Z,49.23
2019-02-27T07:43:36.575Z,44.60
2019-02-27T07:48:38.128Z,51.60
2019-02-27T07:53:39.675Z,46.97
2019-02-27T07:58:41.276Z,52.90
2019-02-27T08:03:45.589Z,53.53
2019-02-27T08:08:46.303Z,55.63
2019-02-27T08:13:47.884Z,58.37
2019-02-27T08:18:49.477Z,55.27
2019-02-27T08:23:51.022Z,60.90
2019-02-27T08:28:52.612Z,38.83
2019-02-27T08:33:54.237Z,51.37
2019-02-27T08:38:55.848Z,36.47
2019-02-27T08:43:57.454Z,35.77
2019-02-27T08:49:01.708Z,38.97
2019-02-27T08:54:03.468Z,38.27
2019-02-27T08:59:06.016Z,53.33
2019-02-27T09:04:11.558Z,40.67
2019-02-27T09:09:11.323Z,42.33
2019-02-27T09:14:12.930Z,50.07
2019-02-27T09:24:16.128Z,42.00
2019-02-27T09:29:18.626Z,42.00
2019-02-27T09:34:20.898Z,35.63
2019-02-27T09:39:22.636Z,42.50
2019-02-27T09:44:24.463Z,36.53
2019-02-27T09:49:26.014Z,34.47
2019-02-27T09:54:27.559Z,35.23
2019-02-27T09:59:30.320Z,35.23
2019-02-27T10:04:31.876Z,38.37
2019-02-27T10:09:34.871Z,36.73
2019-02-27T10:14:37.030Z,33.67
2019-02-27T10:19:38.616Z,37.87
2019-02-27T10:24:40.177Z,35.33
2019-02-27T10:29:41.724Z,33.67
2019-02-27T10:34:43.368Z,31.57
2019-02-27T10:39:44.930Z,30.67
2019-02-27T10:44:46.731Z,32.93
2019-02-27T10:49:48.548Z,38.40
2019-02-27T10:54:50.104Z,29.47
2019-02-27T10:59:51.644Z,29.70
2019-02-27T11:04:53.237Z,30.77
2019-02-27T11:09:54.881Z,29.90
2019-02-27T11:14:56.435Z,20.63
2019-02-27T11:19:58.139Z,23.67
2019-02-27T11:24:59.697Z,24.37
2019-02-27T11:30:03.068Z,21.77
2019-02-27T11:35:06.327Z,16.73
2019-02-27T11:40:20.780Z,20.80
2019-02-27T11:45:24.636Z,20.43
2019-02-27T11:50:25.936Z,18.07
2019-02-27T11:55:27.495Z,17.63
2019-02-27T12:00:29.889Z,18.97
2019-02-27T12:05:34.270Z,16.10
2019-02-27T12:10:34.998Z,12.53
2019-02-27T12:15:36.648Z,12.77
2019-02-27T12:20:38.240Z,14.57
2019-02-27T12:25:39.833Z,13.67
2019-02-27T12:30:42.529Z,12.20
2019-02-27T12:35:44.994Z,15.20
2019-02-27T12:40:46.676Z,14.27
2019-02-27T12:45:48.235Z,12.00
2019-02-27T12:50:49.828Z,12.60
2019-02-27T12:55:51.383Z,14.27
2019-02-27T13:00:52.941Z,13.73
2019-02-27T13:05:54.564Z,14.87
2019-02-27T13:10:56.116Z,12.87
2019-02-27T13:15:57.680Z,14.83
2019-02-27T13:20:59.279Z,12.73
2019-02-27T13:26:01.150Z,13.17
2019-02-27T13:31:03.186Z,14.60
2019-02-27T13:36:05.093Z,12.03
2019-02-27T13:41:07.769Z,13.17
2019-02-27T13:46:10.143Z,12.33
2019-02-27T13:51:12.099Z,13.07
2019-02-27T13:56:16.070Z,12.00
2019-02-27T14:01:17.112Z,16.60
2019-02-27T14:06:18.778Z,18.40
2019-02-27T14:11:20.335Z,20.40
2019-02-27T14:16:22.260Z,18.53
2019-02-27T14:21:23.928Z,17.27
2019-02-27T14:26:25.482Z,18.27
2019-02-27T14:31:27.273Z,14.40
2019-02-27T14:36:28.903Z,14.83
2019-02-27T14:41:30.487Z,15.47
2019-02-27T14:46:32.187Z,16.57
2019-02-27T14:51:33.836Z,16.03
2019-02-27T14:56:35.589Z,17.70
2019-02-27T15:01:37.142Z,19.90
2019-02-27T15:06:39.098Z,20.33
2019-02-27T15:11:40.650Z,20.57
2019-02-27T15:16:42.265Z,19.77
2019-02-27T15:21:46.544Z,20.23
2019-02-27T15:26:50.374Z,21.30
2019-02-27T15:31:52.260Z,26.80
2019-02-27T15:36:54.621Z,26.00
2019-02-27T15:41:56.581Z,29.80
2019-02-27T15:46:58.270Z,27.60
2019-02-27T15:52:00.029Z,27.73
2019-02-27T15:57:01.669Z,36.47
2019-02-27T16:02:03.670Z,31.40
2019-02-27T16:07:05.416Z,28.17
2019-02-27T16:12:07.063Z,31.27
2019-02-27T16:17:08.619Z,27.30
2019-02-27T16:22:10.323Z,30.77
2019-02-27T16:27:11.963Z,26.90
2019-02-27T16:32:14.043Z,34.70
2019-02-27T16:37:21.890Z,31.73
2019-02-27T16:42:19.230Z,38.60
2019-02-27T16:47:23.573Z,43.13
2019-02-27T16:52:24.249Z,33.50
2019-02-27T16:57:25.808Z,33.83
2019-02-27T17:02:27.347Z,31.90
2019-02-27T17:07:29.143Z,33.53
2019-02-27T17:12:30.701Z,61.70
2019-02-27T17:17:32.363Z,45.30
2019-02-27T17:22:34.001Z,48.70
2019-02-27T17:27:35.624Z,55.70
2019-02-27T17:32:37.216Z,48.83
2019-02-27T17:37:39.983Z,45.60
2019-02-27T17:42:42.289Z,48.00
2019-02-27T17:47:43.979Z,61.97
2019-02-27T17:52:48.669Z,58.37
2019-02-27T17:57:49.349Z,61.70
2019-02-27T18:02:52.036Z,62.73
2019-02-27T18:07:53.839Z,56.83
2019-02-27T18:12:55.397Z,52.17
2019-02-27T18:17:58.040Z,44.57
2019-02-27T18:22:59.690Z,42.93
2019-02-27T18:28:01.421Z,42.93
2019-02-27T18:33:03.281Z,43.70
2019-02-27T18:38:05.089Z,45.67
2019-02-27T18:43:06.686Z,41.73
2019-02-27T18:48:10.053Z,39.33
2019-02-27T18:53:13.351Z,38.17
2019-02-27T18:58:18.120Z,37.10
2019-02-27T19:03:18.709Z,38.73
2019-02-27T19:08:20.275Z,36.77
2019-02-27T19:13:21.880Z,35.87
2019-02-27T19:18:23.783Z,35.47
2019-02-27T19:23:26.592Z,32.80
2019-02-27T19:28:28.253Z,26.70
2019-02-27T19:33:32.550Z,29.30
2019-02-27T19:38:33.762Z,33.67
2019-02-27T19:43:35.337Z,37.07
2019-02-27T19:48:37.046Z,33.73
2019-02-27T19:53:41.265Z,35.70
2019-02-27T19:58:43.466Z,30.33
2019-02-27T20:03:45.135Z,31.97
2019-02-27T20:08:46.691Z,34.73
2019-02-27T20:13:48.245Z,37.87
2019-02-27T20:18:54.906Z,35.03
2019-02-27T20:23:53.474Z,33.60
2019-02-27T20:28:55.024Z,29.37
2019-02-27T20:33:56.599Z,33.17
2019-02-27T20:38:58.643Z,30.63
2019-02-27T20:44:02.991Z,32.47
2019-02-27T20:49:03.833Z,30.70
2019-02-27T20:54:06.887Z,24.07
2019-02-27T20:59:08.683Z,24.67
2019-02-27T21:04:12.157Z,23.90
2019-02-27T21:09:13.977Z,22.07
2019-02-27T21:14:17.042Z,24.40
2019-02-27T21:19:19.899Z,26.80
2019-02-27T21:24:23.392Z,21.00
2019-02-27T21:29:24.954Z,25.17
2019-02-27T21:34:26.706Z,22.97
2019-02-27T21:39:28.641Z,22.40
2019-02-27T21:44:32.255Z,20.90
2019-02-27T21:49:34.046Z,20.20
2019-02-27T21:54:39.341Z,20.67
2019-02-27T21:59:40.624Z,19.67
2019-02-27T22:04:44.100Z,16.37
2019-02-27T22:09:45.787Z,20.03
2019-02-27T22:14:48.608Z,20.80
2019-02-27T22:19:53.827Z,21.67
2019-02-27T22:24:55.614Z,20.20
2019-02-27T22:30:00.525Z,21.10
2019-02-27T22:35:04.121Z,21.30
2019-02-27T22:40:11.243Z,18.50
2019-02-27T22:45:16.127Z,16.93
2019-02-27T22:50:20.574Z,16.03
2019-02-27T22:55:22.164Z,15.87
2019-02-27T23:00:52.022Z,17.27
2019-02-27T23:05:55.800Z,16.43
2019-02-27T23:10:57.973Z,15.27
2019-02-27T23:15:59.635Z,16.53
2019-02-27T23:21:01.405Z,14.77
2019-02-27T23:26:04.333Z,14.47
2019-02-27T23:31:05.875Z,15.43
2019-02-27T23:36:07.430Z,15.13
2019-02-27T23:41:09.087Z,15.00
2019-02-27T23:46:10.733Z,13.53
2019-02-27T23:51:15.790Z,13.10
2019-02-27T23:56:19.284Z,12.90
